Main page
METAR-TAF:

METAR-TAF

Airports :

Phu Bai International Airport

Huế, Vietnam

latitude: 16-24N, longitude: 107-41E, elevation: 17 m

Current weather observation

The report was made 22 minutes ago, at 17:30 UTC
Wind 7 kt from the West
Temperature 19°C
Humidity 68%
Pressure 1023 hPa
Visibility 10 km or more
Few clouds at a height of 1500 ft
Broken clouds at a height of 6000 ft

METAR: VVPB 061730Z 27007KT 9999 FEW015 BKN060 19/13 Q1023 NOSIG

Time: 00:52 (17:52 UTC)

Forecast

The report was made 52 minutes ago, at 17:00 UTC
Forecast valid from 06 at 18 UTC to 07 at 18 UTC
Wind 4 kt from the West/Northwest
Visibility 10 km or more
Scattered clouds at a height of 1300 ft
Scattered clouds at a height of 5000 ft
Temporary
from 06 at 20 UTC to 07 at 01 UTC
Visibility: 3200 m
rain, mist
Temporary
from 07 at 09 UTC to 07 at 13 UTC
Visibility: 4500 m
rain

TAF: VVPB 061700Z 0618/0718 30004KT 9999 SCT013 SCT050 TEMPO 0620/0701 3200 RA BR TEMPO 0709/0713 4500 RA

Weather observations and forecasts of more than 4000 airports (METAR and TAF reports).

The available stations are represented by yellow and red dots on the map.

Hover mouse over dot to see the name of the station.

Then click to see weather observations and forecasts.

To change the map : click on the green buttons with a black cross to zoom in, on the green button with a dash to zoom out, or on the green arrows for adjacent maps.


METAR-TAF: